createdAt,value
2023-02-02T00:01:49.046Z,97442.29
2023-02-02T00:04:19.504Z,97441.13
2023-02-02T00:06:47.210Z,97440.71
2023-02-02T00:09:17.270Z,97443.38
2023-02-02T00:11:45.356Z,97439.88
2023-02-02T00:14:12.939Z,97442.23
2023-02-02T00:16:47.351Z,97444.36
2023-02-02T00:19:15.438Z,97444.17
2023-02-02T00:21:42.850Z,97440.07
2023-02-02T00:24:12.399Z,97439.54
2023-02-02T00:26:41.232Z,97443.84
2023-02-02T00:29:14.099Z,97442.04
2023-02-02T00:31:41.110Z,97443.14
2023-02-02T00:34:10.366Z,97447.02
2023-02-02T00:36:37.385Z,97449.48
2023-02-02T00:39:09.019Z,97445.83
2023-02-02T00:41:35.947Z,97445.98
2023-02-02T00:44:22.312Z,97442.78
2023-02-02T00:46:49.012Z,97443.48
2023-02-02T00:49:15.796Z,97441.85
2023-02-02T00:51:42.892Z,97440.73
2023-02-02T00:54:09.937Z,97437.96
2023-02-02T00:56:36.784Z,97431.31
2023-02-02T00:59:03.614Z,97429.77
2023-02-02T01:01:30.299Z,97425.36
2023-02-02T01:03:57.109Z,97427.63
2023-02-02T01:06:24.477Z,97428.09
2023-02-02T01:26:17.605Z,97315.09
2023-02-02T01:28:47.607Z,97270.98
2023-02-02T01:31:18.321Z,97267.45
2023-02-02T01:33:48.748Z,97264.34
2023-02-02T01:36:22.188Z,97258.89
2023-02-02T01:38:51.573Z,97255.06
2023-02-02T01:41:23.038Z,97253.73
2023-02-02T01:43:55.322Z,97249.79
2023-02-02T01:46:34.985Z,97247.80
2023-02-02T01:49:14.573Z,97248.35
2023-02-02T01:51:44.728Z,97243.66
2023-02-02T01:54:21.388Z,97246.00
2023-02-02T01:57:00.876Z,97244.34
2023-02-02T01:59:31.028Z,97249.66
2023-02-02T02:01:59.444Z,97246.25
2023-02-02T02:04:30.501Z,97249.38
2023-02-02T02:07:02.052Z,97252.54
2023-02-02T02:09:31.460Z,97254.09
2023-02-02T02:12:00.459Z,97255.86
2023-02-02T02:14:48.006Z,97262.73
2023-02-02T02:17:48.585Z,97267.51
2023-02-02T02:21:02.019Z,97275.23
2023-02-02T02:24:28.022Z,97279.73
2023-02-02T02:27:20.715Z,97280.96
2023-02-02T02:30:32.068Z,97285.98
2023-02-02T02:33:07.481Z,97294.45
2023-02-02T02:35:35.828Z,97295.21
2023-02-02T02:38:10.349Z,97299.03
2023-02-02T02:40:49.711Z,97302.32
2023-02-02T02:43:31.555Z,97309.27
2023-02-02T02:46:00.664Z,97312.94
2023-02-02T02:48:29.719Z,97314.10
2023-02-02T02:51:08.759Z,97316.08
2023-02-02T02:53:38.006Z,97317.63
2023-02-02T02:56:27.460Z,97321.22
2023-02-02T02:59:07.158Z,97320.25
2023-02-02T03:01:48.415Z,97318.45
2023-02-02T03:04:29.060Z,97323.33
2023-02-02T03:07:35.729Z,97328.73
2023-02-02T03:10:06.613Z,97347.71
2023-02-02T03:12:34.994Z,97346.70
2023-02-02T03:15:06.471Z,97349.53
2023-02-02T03:17:34.604Z,97353.79
2023-02-02T03:20:02.879Z,97354.06
2023-02-02T03:22:31.462Z,97357.95
2023-02-02T03:24:59.638Z,97363.23
2023-02-02T03:27:28.285Z,97364.86
2023-02-02T03:29:56.554Z,97372.02
2023-02-02T03:32:25.018Z,97373.88
2023-02-02T03:34:53.256Z,97378.38
2023-02-02T03:37:21.358Z,97375.35
2023-02-02T03:39:49.674Z,97377.38
2023-02-02T03:42:18.180Z,97377.59
2023-02-02T03:44:46.617Z,97380.95
2023-02-02T03:47:15.040Z,97385.88
2023-02-02T03:49:43.313Z,97390.41
2023-02-02T03:52:14.458Z,97393.09
2023-02-02T03:54:43.245Z,97398.86
2023-02-02T03:57:11.882Z,97400.29
2023-02-02T03:59:40.261Z,97397.58
2023-02-02T04:02:42.313Z,97401.34
2023-02-02T04:06:22.376Z,97407.10
2023-02-02T04:09:59.469Z,97401.36
2023-02-02T04:13:49.315Z,97402.74
2023-02-02T04:32:25.318Z,97410.10
2023-02-02T04:36:18.285Z,97409.66
2023-02-02T04:39:58.242Z,97410.36
2023-02-02T04:43:48.262Z,97416.80
2023-02-02T04:47:41.291Z,97416.23
2023-02-02T04:51:29.288Z,97416.51
2023-02-02T04:55:27.569Z,97415.07
2023-02-02T04:59:07.300Z,97412.40
2023-02-02T05:10:40.295Z,97397.98
2023-02-02T05:14:19.194Z,97395.77
2023-02-02T05:17:48.269Z,97393.57
2023-02-02T05:21:24.296Z,97385.98
2023-02-02T05:24:44.583Z,97378.86
2023-02-02T05:27:13.514Z,97377.52
2023-02-02T05:29:43.298Z,97372.39
2023-02-02T05:32:26.171Z,97373.12
2023-02-02T05:35:05.700Z,97370.36
2023-02-02T05:37:36.043Z,97370.34
2023-02-02T05:40:10.024Z,97367.60
2023-02-02T05:42:40.255Z,97368.80
2023-02-02T05:45:09.225Z,97370.15
2023-02-02T05:47:37.862Z,97369.10
2023-02-02T05:50:15.978Z,97365.05
2023-02-02T05:53:16.532Z,97365.45
2023-02-02T05:55:48.643Z,97371.01
2023-02-02T06:09:16.912Z,97349.69
2023-02-02T06:11:45.639Z,97350.81
2023-02-02T06:14:14.751Z,97349.50
2023-02-02T06:16:45.452Z,97345.52
2023-02-02T06:19:17.008Z,97345.66
2023-02-02T06:21:48.465Z,97339.40
2023-02-02T06:24:16.918Z,97341.79
2023-02-02T06:26:45.634Z,97349.13
2023-02-02T06:29:14.604Z,97346.88
2023-02-02T06:32:06.096Z,97350.48
2023-02-02T06:52:19.681Z,97352.94
2023-02-02T06:54:48.023Z,97356.08
2023-02-02T06:57:16.194Z,97355.13
2023-02-02T06:59:44.556Z,97351.85
2023-02-02T07:02:13.331Z,97351.40
2023-02-02T07:04:44.861Z,97352.77
2023-02-02T07:07:22.240Z,97346.67
2023-02-02T07:09:58.408Z,97351.92
2023-02-02T07:12:29.040Z,97356.14
2023-02-02T07:14:59.720Z,97359.90
2023-02-02T07:17:29.070Z,97356.19
2023-02-02T07:20:09.699Z,97354.92
2023-02-02T07:23:34.334Z,97353.63
2023-02-02T07:34:31.514Z,97353.53
2023-02-02T07:40:40.573Z,97359.27
2023-02-02T07:43:11.618Z,97357.25
2023-02-02T08:04:01.330Z,97369.83
2023-02-02T08:09:50.435Z,97378.08
2023-02-02T09:17:07.619Z,97366.63
2023-02-02T09:19:36.030Z,97375.73
2023-02-02T09:22:06.118Z,97380.14
2023-02-02T09:24:34.345Z,97386.45
2023-02-02T09:27:02.540Z,97394.09
2023-02-02T09:29:32.831Z,97394.26
2023-02-02T09:32:03.766Z,97409.03
2023-02-02T09:34:31.991Z,97412.89
2023-02-02T09:37:01.199Z,97419.30
2023-02-02T10:27:36.412Z,97512.20
2023-02-02T10:30:58.298Z,97519.77
2023-02-02T10:34:04.266Z,97520.86
2023-02-02T10:38:00.037Z,97522.01
2023-02-02T10:41:03.195Z,97522.84
2023-02-02T10:44:20.551Z,97525.98
2023-02-02T10:47:16.439Z,97532.94
2023-02-02T10:49:50.242Z,97540.08
2023-02-02T10:52:29.699Z,97538.23
2023-02-02T10:55:22.684Z,97548.79
2023-02-02T10:58:08.521Z,97551.02
2023-02-02T11:00:46.247Z,97555.39
2023-02-02T11:03:16.552Z,97560.00
2023-02-02T11:06:03.290Z,97560.39
2023-02-02T11:08:44.261Z,97568.67
2023-02-02T11:11:25.980Z,97574.40
2023-02-02T11:14:11.474Z,97579.40
2023-02-02T11:16:43.968Z,97580.71
2023-02-02T11:19:19.792Z,97587.24
2023-02-02T11:22:18.624Z,97592.75
2023-02-02T11:36:00.205Z,97606.66
2023-02-02T11:38:28.789Z,97609.17
2023-02-02T11:49:12.030Z,97626.79
2023-02-02T11:52:25.930Z,97626.16
2023-02-02T11:55:08.858Z,97635.57
2023-02-02T11:57:37.112Z,97636.90
2023-02-02T12:00:18.700Z,97642.10
2023-02-02T12:07:23.816Z,97648.26
2023-02-02T12:11:36.118Z,97649.45
2023-02-02T12:14:24.507Z,97660.03
2023-02-02T12:17:46.660Z,97667.52
2023-02-02T12:36:07.724Z,97703.62
2023-02-02T12:39:21.969Z,97708.13
2023-02-02T12:42:56.025Z,97719.14
2023-02-02T12:49:45.609Z,97740.11
2023-02-02T13:37:41.664Z,97828.94
2023-02-02T13:48:09.896Z,97888.86
2023-02-02T13:51:33.993Z,97904.89
2023-02-02T13:55:07.470Z,97919.32
2023-02-02T14:02:30.034Z,97945.44
2023-02-02T14:29:44.610Z,98031.71
2023-02-02T14:49:47.594Z,98102.09
2023-02-02T14:52:34.405Z,98107.31
2023-02-02T14:55:01.256Z,98118.77
2023-02-02T14:57:28.925Z,98135.87
2023-02-02T15:00:01.468Z,98146.56
2023-02-02T15:02:35.503Z,98150.23
2023-02-02T15:05:27.707Z,98156.70
2023-02-02T15:08:07.426Z,98173.95
2023-02-02T15:15:19.231Z,98203.08
2023-02-02T16:14:50.492Z,98350.18
2023-02-02T16:17:24.418Z,98360.51
2023-02-02T16:43:41.061Z,98409.33
2023-02-02T16:46:36.462Z,98415.09
2023-02-02T16:49:50.134Z,98427.88
2023-02-02T16:53:42.839Z,98440.00
2023-02-02T18:01:36.962Z,98631.14
2023-02-02T18:04:07.704Z,98640.47
2023-02-02T18:24:14.614Z,98693.46
2023-02-02T18:26:42.096Z,98700.42
2023-02-02T18:29:10.167Z,98713.98
2023-02-02T18:31:37.706Z,98724.93
2023-02-02T18:34:04.837Z,98729.81
2023-02-02T18:36:35.714Z,98733.41
2023-02-02T18:39:05.246Z,98733.90
2023-02-02T18:41:32.434Z,98736.91
2023-02-02T18:44:01.832Z,98741.45
2023-02-02T18:46:33.893Z,98745.73
2023-02-02T18:49:01.532Z,98756.35
2023-02-02T18:51:28.469Z,98762.73
2023-02-02T18:53:59.726Z,98770.35
2023-02-02T18:56:27.335Z,98776.32
2023-02-02T18:58:54.281Z,98783.42
2023-02-02T19:01:25.774Z,98789.38
2023-02-02T19:03:56.520Z,98795.42
2023-02-02T19:06:42.307Z,98801.38
2023-02-02T19:09:09.152Z,98799.82
2023-02-02T19:11:44.278Z,98805.82
2023-02-02T19:14:18.884Z,98812.13
2023-02-02T19:16:47.818Z,98818.61
2023-02-02T19:19:24.497Z,98825.42
2023-02-02T19:21:57.316Z,98835.73
2023-02-02T19:24:28.729Z,98842.71
2023-02-02T19:26:57.149Z,98851.88
2023-02-02T19:29:29.708Z,98856.34
2023-02-02T19:32:02.062Z,98857.12
2023-02-02T19:34:29.240Z,98867.79
2023-02-02T19:36:56.428Z,98872.36
2023-02-02T19:39:30.170Z,98877.09
2023-02-02T19:42:04.796Z,98888.92
2023-02-02T19:44:33.388Z,98893.80
2023-02-02T19:47:02.081Z,98895.13
2023-02-02T19:49:38.153Z,98900.11
2023-02-02T19:52:26.837Z,98905.77
2023-02-02T19:54:54.086Z,98918.48
2023-02-02T19:57:38.680Z,98923.42
2023-02-02T20:00:31.818Z,98925.26
2023-02-02T20:27:59.653Z,98979.05
2023-02-02T20:30:30.261Z,98987.09
2023-02-02T20:32:59.667Z,98994.27
2023-02-02T20:35:35.756Z,99005.17
2023-02-02T20:38:21.639Z,99016.19
2023-02-02T20:40:53.538Z,99026.48
2023-02-02T20:43:22.572Z,99031.64
2023-02-02T20:49:11.330Z,99047.83
2023-02-02T20:51:40.541Z,99054.59
2023-02-02T20:54:08.972Z,99062.27
2023-02-02T20:56:36.199Z,99072.10
2023-02-02T20:59:05.225Z,99081.84
2023-02-02T21:02:19.054Z,99086.55
2023-02-02T21:04:47.642Z,99096.75
2023-02-02T21:07:16.304Z,99100.59
2023-02-02T21:09:44.199Z,99107.69
2023-02-02T21:12:11.699Z,99115.23
2023-02-02T21:14:39.728Z,99133.91
2023-02-02T21:17:15.197Z,99146.30
2023-02-02T21:19:43.541Z,99154.66
2023-02-02T21:22:11.788Z,99166.21
2023-02-02T21:24:39.384Z,99175.48
2023-02-02T21:27:07.062Z,99181.04
2023-02-02T21:29:34.773Z,99192.55
2023-02-02T21:32:21.756Z,99204.30
2023-02-02T21:34:49.906Z,99216.09
2023-02-02T21:37:17.102Z,99218.00
2023-02-02T21:39:59.425Z,99234.52
2023-02-02T21:42:35.192Z,99250.05
2023-02-02T21:45:56.569Z,99258.98
2023-02-02T21:48:34.466Z,99266.90
2023-02-02T21:51:17.266Z,99272.58
2023-02-02T21:53:44.760Z,99274.06
2023-02-02T21:56:26.390Z,99337.44
2023-02-02T21:59:00.044Z,99387.40
2023-02-02T22:01:37.020Z,99400.31
2023-02-02T22:04:11.712Z,99402.38
2023-02-02T22:06:43.533Z,99406.77
2023-02-02T22:09:13.521Z,99408.81
2023-02-02T22:12:11.608Z,99413.36
2023-02-02T23:23:17.360Z,99492.70
2023-02-02T23:31:22.628Z,99502.09
